createdAt,value
2023-04-14T00:03:38.858Z,1.70
2023-04-14T00:08:40.415Z,1.50
2023-04-14T00:13:42.106Z,1.63
2023-04-14T00:18:43.561Z,1.75
2023-04-14T00:23:45.014Z,1.50
2023-04-14T00:28:46.434Z,2.50
2023-04-14T00:33:47.863Z,1.60
2023-04-14T00:38:49.268Z,1.50
2023-04-14T00:43:54.440Z,1.60
2023-04-14T00:48:56.448Z,1.30
2023-04-14T00:53:58.395Z,1.90
2023-04-14T00:59:01.300Z,1.60
2023-04-14T01:04:03.715Z,1.67
2023-04-14T01:09:05.825Z,1.50
2023-04-14T01:14:44.644Z,1.65
2023-04-14T01:20:16.909Z,1.95
2023-04-14T01:25:57.922Z,1.55
2023-04-14T01:31:25.376Z,1.88
2023-04-14T01:36:34.556Z,2.00
2023-04-14T01:41:42.136Z,2.40
2023-04-14T01:46:44.903Z,2.60
2023-04-14T01:51:48.605Z,2.33
2023-04-14T01:56:51.870Z,3.10
2023-04-14T02:01:54.110Z,2.70
2023-04-14T02:06:58.770Z,2.85
2023-04-14T02:12:01.413Z,3.28
2023-04-14T02:17:05.185Z,3.10
2023-04-14T02:22:06.742Z,3.83
2023-04-14T02:27:18.850Z,2.92
2023-04-14T02:32:24.658Z,2.70
2023-04-14T02:37:39.242Z,3.28
2023-04-14T02:42:43.259Z,3.15
2023-04-14T02:47:50.253Z,3.00
2023-04-14T02:52:53.969Z,2.92
2023-04-14T02:57:59.938Z,2.75
2023-04-14T03:03:07.697Z,2.72
2023-04-14T03:08:12.054Z,3.35
2023-04-14T03:13:16.578Z,3.15
2023-04-14T03:18:19.651Z,3.30
2023-04-14T03:23:25.231Z,3.30
2023-04-14T03:28:36.252Z,3.15
2023-04-14T03:33:42.601Z,3.00
2023-04-14T03:38:49.760Z,3.55
2023-04-14T03:43:53.478Z,4.60
2023-04-14T03:48:58.669Z,3.55
2023-04-14T03:54:04.845Z,3.78
2023-04-14T03:59:10.017Z,3.70
2023-04-14T04:04:14.822Z,3.95
2023-04-14T04:09:18.688Z,3.85
2023-04-14T04:14:22.590Z,3.50
2023-04-14T04:19:25.953Z,3.05
2023-04-14T04:24:31.573Z,4.30
2023-04-14T04:29:33.422Z,3.65
2023-04-14T04:34:35.220Z,3.70
2023-04-14T04:39:37.848Z,3.33
2023-04-14T04:44:39.636Z,4.28
2023-04-14T04:49:41.260Z,3.40
2023-04-14T04:54:42.781Z,3.22
2023-04-14T04:59:44.289Z,4.00
2023-04-14T05:04:49.216Z,5.03
2023-04-14T05:09:51.135Z,3.35
2023-04-14T05:14:52.817Z,4.40
2023-04-14T05:19:54.489Z,3.97
2023-04-14T05:24:56.107Z,4.10
2023-04-14T05:29:58.022Z,4.55
2023-04-14T05:34:59.652Z,4.15
2023-04-14T05:40:01.247Z,3.58
2023-04-14T05:45:02.988Z,3.95
2023-04-14T05:50:05.404Z,3.95
2023-04-14T05:55:07.632Z,3.97
2023-04-14T06:00:10.659Z,3.22
2023-04-14T06:05:16.312Z,3.40
2023-04-14T06:10:18.014Z,4.03
2023-04-14T06:15:19.670Z,3.47
2023-04-14T06:20:21.257Z,3.58
2023-04-14T06:25:22.997Z,3.28
2023-04-14T06:30:24.644Z,3.30
2023-04-14T06:35:33.006Z,3.42
2023-04-14T06:40:35.323Z,2.90
2023-04-14T06:45:37.005Z,4.15
2023-04-14T06:50:38.749Z,3.40
2023-04-14T06:55:43.317Z,2.35
2023-04-14T07:00:44.897Z,2.70
2023-04-14T07:05:46.527Z,2.35
2023-04-14T07:10:48.323Z,2.10
2023-04-14T07:15:50.787Z,2.75
2023-04-14T07:20:53.010Z,2.75
2023-04-14T07:25:56.729Z,2.35
2023-04-14T07:30:58.365Z,2.20
2023-04-14T07:36:03.500Z,2.88
2023-04-14T07:41:07.939Z,1.90
2023-04-14T07:46:09.513Z,2.15
2023-04-14T07:51:11.303Z,2.10
2023-04-14T07:56:13.057Z,2.35
2023-04-14T08:01:14.668Z,1.85
2023-04-14T08:06:16.153Z,2.00
2023-04-14T08:11:17.622Z,2.22
2023-04-14T08:16:23.143Z,2.83
2023-04-14T08:42:59.868Z,1.88
2023-04-14T08:48:04.009Z,1.92
2023-04-14T08:53:09.198Z,1.77
2023-04-14T08:58:11.347Z,1.70
2023-04-14T09:03:14.091Z,1.40
2023-04-14T09:08:19.636Z,2.05
2023-04-14T09:13:24.114Z,1.90
2023-04-14T09:18:29.566Z,2.38
2023-04-14T09:23:36.843Z,1.70
2023-04-14T09:28:39.211Z,1.50
2023-04-14T09:33:45.365Z,1.65
2023-04-14T09:38:50.066Z,1.88
2023-04-14T09:43:52.678Z,1.70
2023-04-14T09:54:44.586Z,1.20
2023-04-14T09:59:51.022Z,1.23
2023-04-14T10:05:08.985Z,1.55
2023-04-14T10:10:12.887Z,1.33
2023-04-14T10:15:15.579Z,1.42
2023-04-14T10:20:19.121Z,1.10
2023-04-14T10:25:26.389Z,1.70
2023-04-14T10:30:28.230Z,1.58
2023-04-14T10:40:59.226Z,1.27
2023-04-14T10:46:01.204Z,1.88
2023-04-14T10:51:05.474Z,1.73
2023-04-14T10:56:08.387Z,1.70
2023-04-14T11:01:31.257Z,1.45
2023-04-14T11:06:49.490Z,1.40
2023-04-14T11:11:51.406Z,1.50
2023-04-14T11:17:04.507Z,1.40
2023-04-14T11:22:06.840Z,1.40
2023-04-14T11:27:11.866Z,1.60
2023-04-14T11:32:14.085Z,1.52
2023-04-14T11:37:22.923Z,1.33
2023-04-14T11:42:24.965Z,1.40
2023-04-14T11:47:26.903Z,1.38
2023-04-14T11:52:29.023Z,1.27
2023-04-14T11:57:37.479Z,1.17
2023-04-14T12:08:26.365Z,1.17
2023-04-14T12:35:46.707Z,1.33
2023-04-14T12:41:49.304Z,1.10
2023-04-14T12:46:58.568Z,1.10
2023-04-14T12:52:00.981Z,1.25
2023-04-14T12:57:03.584Z,1.42
2023-04-14T13:17:47.930Z,1.48
2023-04-14T13:22:49.408Z,0.98
2023-04-14T13:27:50.832Z,1.23
2023-04-14T13:32:52.262Z,1.10
2023-04-14T13:37:53.789Z,2.30
2023-04-14T13:42:55.547Z,1.13
2023-04-14T13:47:57.108Z,1.08
2023-04-14T13:52:58.531Z,1.60
2023-04-14T13:58:00.012Z,1.00
2023-04-14T14:03:01.932Z,0.90
2023-04-14T14:08:03.578Z,0.80
2023-04-14T14:13:04.997Z,1.15
2023-04-14T14:18:06.446Z,1.17
2023-04-14T14:23:08.004Z,1.77
2023-04-14T14:28:09.487Z,0.73
2023-04-14T14:33:11.007Z,1.05
2023-04-14T14:38:12.506Z,0.85
2023-04-14T14:43:14.383Z,1.05
2023-04-14T14:48:15.845Z,0.90
2023-04-14T14:53:17.270Z,1.00
2023-04-14T14:58:18.757Z,1.00
2023-04-14T15:03:20.298Z,1.08
2023-04-14T15:08:21.760Z,1.85
2023-04-14T15:13:23.468Z,1.80
2023-04-14T15:18:24.969Z,1.00
2023-04-14T15:23:26.398Z,6.38
2023-04-14T15:28:27.889Z,1.10
2023-04-14T15:33:29.318Z,2.67
2023-04-14T15:38:30.707Z,1.10
2023-04-14T15:43:32.227Z,2.08
2023-04-14T15:48:33.749Z,1.50
2023-04-14T15:53:35.195Z,1.02
2023-04-14T15:58:36.678Z,1.20
2023-04-14T16:03:38.259Z,0.85
2023-04-14T16:08:39.854Z,0.93
2023-04-14T16:13:41.346Z,0.90
2023-04-14T16:18:42.832Z,1.02
2023-04-14T16:23:44.353Z,1.00
2023-04-14T16:28:45.771Z,0.60
2023-04-14T16:33:47.214Z,1.15
2023-04-14T16:38:48.631Z,0.90
2023-04-14T16:43:50.131Z,1.02
2023-04-14T16:48:51.603Z,1.00
2023-04-14T16:53:53.178Z,1.05
2023-04-14T16:58:54.642Z,1.52
2023-04-14T17:03:56.257Z,0.93
2023-04-14T17:08:58.013Z,0.90
2023-04-14T17:13:59.694Z,1.15
2023-04-14T17:19:01.288Z,0.90
2023-04-14T17:24:03.451Z,1.60
2023-04-14T17:29:04.961Z,0.90
2023-04-14T17:34:06.566Z,0.85
2023-04-14T17:39:07.988Z,1.08
2023-04-14T17:44:09.496Z,0.95
2023-04-14T17:49:10.947Z,0.90
2023-04-14T17:54:12.543Z,1.30
2023-04-14T17:59:14.000Z,1.10
2023-04-14T18:04:15.605Z,1.30
2023-04-14T18:09:17.172Z,1.70
2023-04-14T18:14:18.575Z,1.20
2023-04-14T18:19:20.019Z,1.45
2023-04-14T18:29:28.017Z,1.80
2023-04-14T18:34:29.449Z,1.75
2023-04-14T18:39:32.002Z,1.60
2023-04-14T18:44:33.449Z,2.00
2023-04-14T18:49:35.039Z,1.50
2023-04-14T18:54:36.514Z,1.10
2023-04-14T18:59:38.110Z,1.63
2023-04-14T19:04:39.940Z,2.10
2023-04-14T19:09:41.515Z,2.20
2023-04-14T19:14:43.856Z,2.75
2023-04-14T19:19:45.302Z,1.83
2023-04-14T19:24:46.773Z,1.70
2023-04-14T19:29:48.271Z,6.53
2023-04-14T19:34:49.773Z,2.10
2023-04-14T19:39:51.251Z,1.98
2023-04-14T19:44:52.746Z,1.90
2023-04-14T19:49:54.249Z,2.25
2023-04-14T19:54:55.736Z,1.80
2023-04-14T19:59:57.419Z,3.03
2023-04-14T20:04:58.890Z,1.83
2023-04-14T20:10:00.313Z,3.45
2023-04-14T20:15:01.809Z,8.20
2023-04-14T20:20:03.377Z,5.18
2023-04-14T20:25:05.480Z,2.58
2023-04-14T20:30:07.562Z,2.78
2023-04-14T20:35:09.148Z,2.00
2023-04-14T20:40:10.828Z,2.33
2023-04-14T20:45:12.351Z,2.45
2023-04-14T20:50:13.881Z,2.80
2023-04-14T20:55:15.397Z,1.67
2023-04-14T21:00:16.986Z,1.85
2023-04-14T21:05:18.529Z,2.25
2023-04-14T21:10:20.016Z,3.40
2023-04-14T21:15:45.633Z,2.72
2023-04-14T21:20:43.163Z,2.85
2023-04-14T21:25:44.653Z,1.88
2023-04-14T21:30:46.099Z,1.83
2023-04-14T21:35:47.823Z,1.88
2023-04-14T21:40:49.797Z,2.30
2023-04-14T21:45:51.323Z,1.55
2023-04-14T21:50:52.836Z,3.88
2023-04-14T21:56:09.259Z,3.30
2023-04-14T22:01:12.009Z,2.50
2023-04-14T22:06:13.523Z,3.40
2023-04-14T22:11:15.176Z,2.28
2023-04-14T22:16:16.675Z,2.65
2023-04-14T22:21:18.184Z,3.22
2023-04-14T22:26:19.704Z,4.40
2023-04-14T22:31:21.222Z,2.25
2023-04-14T22:36:22.693Z,3.25
2023-04-14T22:41:24.473Z,2.63
2023-04-14T22:46:25.965Z,2.03
2023-04-14T22:51:27.392Z,2.00
2023-04-14T22:56:28.875Z,1.73
2023-04-14T23:01:30.392Z,1.80
2023-04-14T23:06:31.962Z,1.88
2023-04-14T23:11:33.401Z,1.77
2023-04-14T23:16:34.909Z,2.03
2023-04-14T23:21:36.427Z,2.33
2023-04-14T23:26:37.945Z,1.88
2023-04-14T23:31:39.458Z,1.52
2023-04-14T23:36:41.015Z,1.90
2023-04-14T23:41:42.466Z,2.10
2023-04-14T23:46:43.987Z,2.05
2023-04-14T23:51:45.477Z,1.83
2023-04-14T23:56:47.086Z,1.70
